KLM511 EDDF-EHAM
Flight info
| Callsign | KLM511 |
|---|---|
| Flight time | 0h 48m |
| Altitude | 24000 |
| Route | MARUN8M/25C MARUN Y152 ARPEG Z850 ABILU DCT NORKU |
| Aircraft | B738/M-SDE2E3FGHIRWXY/LB1 |
Departure
| Time | 2026-05-06 14:10 |
|---|---|
| Airport | Frankfurt Main Airport (EDDF) |
Arrival
| Time | 2026-05-06 14:59 |
|---|---|
| Airport | Amsterdam Airport Schiphol (EHAM) |
| Time | Latitude | Longitude | Altitude | Speed | Heading |
|---|---|---|---|---|---|
| 2026-05-06 13:41 | 50.04651 | 8.56817 | 345 ft | 0 kts | 292° |
| 2026-05-06 14:02 | 50.04648 | 8.56828 | 345 ft | 2 kts | 292° |
| 2026-05-06 14:02 | 50.04643 | 8.56848 | 345 ft | 2 kts | 292° |
| 2026-05-06 14:02 | 50.04637 | 8.56871 | 345 ft | 3 kts | 292° |
| 2026-05-06 14:02 | 50.04629 | 8.56899 | 345 ft | 3 kts | 292° |
| 2026-05-06 14:03 | 50.04625 | 8.56925 | 345 ft | 2 kts | 230° |
| 2026-05-06 14:03 | 50.04622 | 8.56923 | 345 ft | 2 kts | 216° |
| 2026-05-06 14:03 | 50.04611 | 8.56916 | 345 ft | 0 kts | 197° |
| 2026-05-06 14:06 | 50.04610 | 8.56916 | 345 ft | 1 kts | 197° |
| 2026-05-06 14:06 | 50.04547 | 8.56890 | 347 ft | 16 kts | 190° |
| 2026-05-06 14:06 | 50.04434 | 8.56852 | 345 ft | 17 kts | 189° |
| 2026-05-06 14:06 | 50.04311 | 8.56835 | 349 ft | 18 kts | 158° |
| 2026-05-06 14:07 | 50.04301 | 8.57005 | 352 ft | 18 kts | 70° |
| 2026-05-06 14:07 | 50.04349 | 8.57204 | 350 ft | 22 kts | 70° |
| 2026-05-06 14:07 | 50.04409 | 8.57455 | 347 ft | 28 kts | 69° |
| 2026-05-06 14:07 | 50.04478 | 8.57749 | 349 ft | 29 kts | 70° |
| 2026-05-06 14:08 | 50.04547 | 8.58034 | 351 ft | 27 kts | 69° |
| 2026-05-06 14:08 | 50.04611 | 8.58304 | 353 ft | 25 kts | 69° |
| 2026-05-06 14:08 | 50.04659 | 8.58503 | 355 ft | 12 kts | 85° |
| 2026-05-06 14:08 | 50.04616 | 8.58581 | 348 ft | 10 kts | 157° |
| 2026-05-06 14:09 | 50.04551 | 8.58616 | 354 ft | 10 kts | 163° |
| 2026-05-06 14:09 | 50.04488 | 8.58582 | 352 ft | 10 kts | 234° |
| 2026-05-06 14:09 | 50.04477 | 8.58544 | 345 ft | 0 kts | 248° |
| 2026-05-06 14:10 | 50.04434 | 8.58366 | 350 ft | 57 kts | 250° |
| 2026-05-06 14:10 | 50.04188 | 8.57327 | 349 ft | 143 kts | 250° |
| 2026-05-06 14:10 | 50.03773 | 8.55613 | 764 ft | 185 kts | 249° |
| 2026-05-06 14:10 | 50.03312 | 8.53603 | 1557 ft | 207 kts | 249° |
| 2026-05-06 14:11 | 50.02807 | 8.51425 | 2436 ft | 221 kts | 247° |
| 2026-05-06 14:11 | 50.01894 | 8.49428 | 3294 ft | 239 kts | 220° |
| 2026-05-06 14:11 | 50.00376 | 8.48266 | 4216 ft | 256 kts | 197° |
| 2026-05-06 14:11 | 49.98579 | 8.47670 | 5245 ft | 266 kts | 192° |
| 2026-05-06 14:12 | 49.96737 | 8.47172 | 6321 ft | 270 kts | 191° |
| 2026-05-06 14:12 | 49.94885 | 8.46596 | 7296 ft | 267 kts | 197° |
| 2026-05-06 14:12 | 49.93160 | 8.45624 | 8347 ft | 262 kts | 214° |
| 2026-05-06 14:12 | 49.91905 | 8.43723 | 9391 ft | 254 kts | 238° |
| 2026-05-06 14:13 | 49.91255 | 8.41224 | 10457 ft | 248 kts | 258° |
| 2026-05-06 14:13 | 49.91256 | 8.38568 | 11506 ft | 244 kts | 284° |
| 2026-05-06 14:13 | 49.92122 | 8.36386 | 12407 ft | 250 kts | 313° |
| 2026-05-06 14:13 | 49.93668 | 8.34885 | 12761 ft | 275 kts | 332° |
| 2026-05-06 14:14 | 49.95515 | 8.33656 | 13002 ft | 302 kts | 334° |
| 2026-05-06 14:14 | 49.97546 | 8.32386 | 13219 ft | 328 kts | 335° |
| 2026-05-06 14:14 | 49.99737 | 8.30992 | 13407 ft | 353 kts | 334° |
| 2026-05-06 14:14 | 50.02077 | 8.29472 | 13586 ft | 376 kts | 335° |
| 2026-05-06 14:15 | 50.04670 | 8.28454 | 13820 ft | 399 kts | 355° |
| 2026-05-06 14:15 | 50.07466 | 8.28959 | 14386 ft | 410 kts | 15° |
| 2026-05-06 14:15 | 50.10218 | 8.30252 | 15119 ft | 412 kts | 12° |
| 2026-05-06 14:15 | 50.13055 | 8.30820 | 15789 ft | 414 kts | 360° |
| 2026-05-06 14:16 | 50.15947 | 8.30822 | 16442 ft | 416 kts | 358° |
| 2026-05-06 14:16 | 50.18848 | 8.30764 | 17086 ft | 420 kts | 358° |
| 2026-05-06 14:16 | 50.21794 | 8.30704 | 17717 ft | 423 kts | 358° |
| 2026-05-06 14:16 | 50.24751 | 8.30659 | 18314 ft | 427 kts | 358° |
| 2026-05-06 14:17 | 50.27725 | 8.30630 | 18910 ft | 430 kts | 358° |
| 2026-05-06 14:17 | 50.30726 | 8.30615 | 19495 ft | 433 kts | 358° |
| 2026-05-06 14:17 | 50.33747 | 8.30608 | 20047 ft | 436 kts | 358° |
| 2026-05-06 14:17 | 50.36784 | 8.30607 | 20595 ft | 439 kts | 358° |
| 2026-05-06 14:18 | 50.39854 | 8.30607 | 21120 ft | 442 kts | 358° |
| 2026-05-06 14:18 | 50.42943 | 8.30607 | 21634 ft | 444 kts | 358° |
| 2026-05-06 14:18 | 50.46050 | 8.30608 | 22113 ft | 447 kts | 358° |
| 2026-05-06 14:18 | 50.49128 | 8.30608 | 22564 ft | 450 kts | 358° |
| 2026-05-06 14:19 | 50.52317 | 8.30608 | 23035 ft | 453 kts | 358° |
| 2026-05-06 14:19 | 50.55485 | 8.30608 | 23515 ft | 454 kts | 358° |
| 2026-05-06 14:19 | 50.58604 | 8.30608 | 23770 ft | 458 kts | 358° |
| 2026-05-06 14:19 | 50.61831 | 8.30606 | 23769 ft | 467 kts | 358° |
| 2026-05-06 14:20 | 50.65100 | 8.30604 | 23783 ft | 474 kts | 358° |
| 2026-05-06 14:20 | 50.68429 | 8.30603 | 23792 ft | 481 kts | 358° |
| 2026-05-06 14:20 | 50.71792 | 8.30602 | 23781 ft | 484 kts | 358° |
| 2026-05-06 14:20 | 50.75163 | 8.30603 | 23778 ft | 484 kts | 358° |
| 2026-05-06 14:21 | 50.78529 | 8.30604 | 23772 ft | 484 kts | 358° |
| 2026-05-06 14:21 | 50.81901 | 8.30604 | 23774 ft | 483 kts | 358° |
| 2026-05-06 14:21 | 50.85249 | 8.30603 | 23775 ft | 482 kts | 358° |
| 2026-05-06 14:21 | 50.88603 | 8.30603 | 23776 ft | 482 kts | 358° |
| 2026-05-06 14:22 | 50.91951 | 8.30602 | 23780 ft | 481 kts | 358° |
| 2026-05-06 14:22 | 50.95301 | 8.30602 | 23789 ft | 480 kts | 358° |
| 2026-05-06 14:22 | 50.98649 | 8.30404 | 23781 ft | 479 kts | 352° |
| 2026-05-06 14:22 | 51.01900 | 8.29399 | 23790 ft | 476 kts | 342° |
| 2026-05-06 14:23 | 51.05012 | 8.27663 | 23795 ft | 474 kts | 335° |
| 2026-05-06 14:23 | 51.07919 | 8.25239 | 23789 ft | 472 kts | 326° |
| 2026-05-06 14:23 | 51.10649 | 8.22326 | 23802 ft | 471 kts | 323° |
| 2026-05-06 14:23 | 51.13335 | 8.19339 | 23800 ft | 471 kts | 323° |
| 2026-05-06 14:24 | 51.16014 | 8.16330 | 23802 ft | 471 kts | 323° |
| 2026-05-06 14:24 | 51.18698 | 8.13323 | 23816 ft | 472 kts | 323° |
| 2026-05-06 14:24 | 51.21395 | 8.10324 | 23795 ft | 472 kts | 323° |
| 2026-05-06 14:24 | 51.24096 | 8.07339 | 23806 ft | 473 kts | 324° |
| 2026-05-06 14:25 | 51.26772 | 8.04393 | 23809 ft | 473 kts | 324° |
| 2026-05-06 14:25 | 51.29514 | 8.01380 | 23818 ft | 473 kts | 324° |
| 2026-05-06 14:25 | 51.32230 | 7.98395 | 23823 ft | 473 kts | 324° |
| 2026-05-06 14:25 | 51.34911 | 7.95447 | 23826 ft | 473 kts | 324° |
| 2026-05-06 14:26 | 51.37684 | 7.92391 | 23821 ft | 474 kts | 324° |
| 2026-05-06 14:26 | 51.40383 | 7.89413 | 23823 ft | 474 kts | 324° |
| 2026-05-06 14:26 | 51.43093 | 7.86415 | 23823 ft | 474 kts | 324° |
| 2026-05-06 14:26 | 51.45765 | 7.83455 | 23822 ft | 474 kts | 324° |
| 2026-05-06 14:27 | 51.48480 | 7.80443 | 23821 ft | 474 kts | 324° |
| 2026-05-06 14:27 | 51.51193 | 7.77428 | 23824 ft | 474 kts | 324° |
| 2026-05-06 14:27 | 51.53900 | 7.74417 | 23829 ft | 474 kts | 324° |
| 2026-05-06 14:27 | 51.56607 | 7.71400 | 23833 ft | 474 kts | 324° |
| 2026-05-06 14:28 | 51.59318 | 7.68375 | 23835 ft | 473 kts | 324° |
| 2026-05-06 14:28 | 51.62028 | 7.65346 | 23834 ft | 474 kts | 324° |
| 2026-05-06 14:28 | 51.64734 | 7.62319 | 23830 ft | 474 kts | 324° |
| 2026-05-06 14:28 | 51.67409 | 7.59315 | 23834 ft | 474 kts | 324° |
| 2026-05-06 14:29 | 51.70125 | 7.56265 | 23835 ft | 473 kts | 324° |
| 2026-05-06 14:29 | 51.72851 | 7.53201 | 23832 ft | 474 kts | 324° |
| 2026-05-06 14:29 | 51.75517 | 7.50201 | 23838 ft | 473 kts | 324° |
| 2026-05-06 14:29 | 51.78209 | 7.47166 | 23843 ft | 473 kts | 324° |
| 2026-05-06 14:30 | 51.80950 | 7.44070 | 23843 ft | 473 kts | 324° |
| 2026-05-06 14:30 | 51.83603 | 7.41069 | 23842 ft | 473 kts | 324° |
| 2026-05-06 14:30 | 51.86327 | 7.37984 | 23844 ft | 473 kts | 324° |
| 2026-05-06 14:30 | 51.88986 | 7.34968 | 23850 ft | 472 kts | 324° |
| 2026-05-06 14:31 | 51.91716 | 7.31866 | 23852 ft | 472 kts | 324° |
| 2026-05-06 14:31 | 51.94365 | 7.28853 | 23852 ft | 472 kts | 324° |
| 2026-05-06 14:31 | 51.97092 | 7.25745 | 23850 ft | 472 kts | 324° |
| 2026-05-06 14:31 | 51.99735 | 7.22729 | 23849 ft | 472 kts | 324° |
| 2026-05-06 14:32 | 52.02417 | 7.19664 | 23847 ft | 472 kts | 324° |
| 2026-05-06 14:32 | 52.05092 | 7.16601 | 23852 ft | 471 kts | 324° |
| 2026-05-06 14:32 | 52.07790 | 7.13509 | 23854 ft | 471 kts | 324° |
| 2026-05-06 14:32 | 52.10461 | 7.10441 | 23852 ft | 471 kts | 324° |
| 2026-05-06 14:33 | 52.13135 | 7.07366 | 23852 ft | 471 kts | 324° |
| 2026-05-06 14:33 | 52.15823 | 7.04271 | 23861 ft | 471 kts | 323° |
| 2026-05-06 14:33 | 52.18497 | 7.01188 | 23867 ft | 470 kts | 323° |
| 2026-05-06 14:33 | 52.21162 | 6.98076 | 23869 ft | 470 kts | 321° |
| 2026-05-06 14:34 | 52.23474 | 6.94381 | 23880 ft | 467 kts | 308° |
| 2026-05-06 14:34 | 52.25458 | 6.90255 | 23873 ft | 467 kts | 307° |
| 2026-05-06 14:34 | 52.27441 | 6.86050 | 23867 ft | 464 kts | 307° |
| 2026-05-06 14:34 | 52.29424 | 6.81936 | 23868 ft | 459 kts | 308° |
| 2026-05-06 14:35 | 52.31416 | 6.77902 | 23877 ft | 457 kts | 308° |
| 2026-05-06 14:35 | 52.33436 | 6.73846 | 23884 ft | 458 kts | 308° |
| 2026-05-06 14:35 | 52.35453 | 6.69801 | 23745 ft | 460 kts | 308° |
| 2026-05-06 14:35 | 52.37456 | 6.65771 | 23165 ft | 455 kts | 308° |
| 2026-05-06 14:36 | 52.39445 | 6.61757 | 22494 ft | 447 kts | 308° |
| 2026-05-06 14:36 | 52.41389 | 6.57829 | 21777 ft | 441 kts | 308° |
| 2026-05-06 14:36 | 52.43305 | 6.53947 | 21061 ft | 435 kts | 308° |
| 2026-05-06 14:36 | 52.45188 | 6.50113 | 20343 ft | 430 kts | 306° |
| 2026-05-06 14:37 | 52.46643 | 6.45869 | 19620 ft | 424 kts | 289° |
| 2026-05-06 14:37 | 52.47270 | 6.41194 | 18930 ft | 418 kts | 275° |
| 2026-05-06 14:37 | 52.47495 | 6.36469 | 18239 ft | 414 kts | 273° |
| 2026-05-06 14:37 | 52.47684 | 6.31772 | 17535 ft | 412 kts | 273° |
| 2026-05-06 14:38 | 52.47876 | 6.27113 | 16836 ft | 410 kts | 274° |
| 2026-05-06 14:38 | 52.48084 | 6.22436 | 16132 ft | 406 kts | 274° |
| 2026-05-06 14:38 | 52.48297 | 6.17922 | 15449 ft | 401 kts | 275° |
| 2026-05-06 14:38 | 52.48517 | 6.13370 | 14765 ft | 397 kts | 275° |
| 2026-05-06 14:39 | 52.48736 | 6.08871 | 14086 ft | 393 kts | 275° |
| 2026-05-06 14:39 | 52.48949 | 6.04438 | 13415 ft | 390 kts | 275° |
| 2026-05-06 14:39 | 52.49160 | 5.99993 | 12741 ft | 386 kts | 275° |
| 2026-05-06 14:39 | 52.49366 | 5.95623 | 12076 ft | 383 kts | 276° |
| 2026-05-06 14:40 | 52.49568 | 5.91272 | 11414 ft | 380 kts | 276° |
| 2026-05-06 14:40 | 52.49766 | 5.86997 | 11007 ft | 371 kts | 276° |
| 2026-05-06 14:40 | 52.49957 | 5.82844 | 10843 ft | 360 kts | 276° |
| 2026-05-06 14:40 | 52.50140 | 5.78817 | 10756 ft | 346 kts | 276° |
| 2026-05-06 14:41 | 52.50315 | 5.74962 | 10721 ft | 330 kts | 276° |
| 2026-05-06 14:41 | 52.50482 | 5.71271 | 10521 ft | 322 kts | 276° |
| 2026-05-06 14:41 | 52.50644 | 5.67696 | 10298 ft | 315 kts | 276° |
| 2026-05-06 14:41 | 52.50803 | 5.64106 | 10145 ft | 305 kts | 276° |
| 2026-05-06 14:42 | 52.50953 | 5.60721 | 10020 ft | 296 kts | 276° |
| 2026-05-06 14:42 | 52.51061 | 5.57404 | 9874 ft | 288 kts | 269° |
| 2026-05-06 14:42 | 52.50644 | 5.54236 | 9767 ft | 282 kts | 253° |
| 2026-05-06 14:42 | 52.49993 | 5.51212 | 9669 ft | 280 kts | 251° |
| 2026-05-06 14:43 | 52.49327 | 5.48226 | 9563 ft | 280 kts | 251° |
| 2026-05-06 14:43 | 52.48653 | 5.45200 | 9463 ft | 283 kts | 251° |
| 2026-05-06 14:43 | 52.47975 | 5.42140 | 9352 ft | 286 kts | 251° |
| 2026-05-06 14:43 | 52.47300 | 5.39076 | 9230 ft | 286 kts | 252° |
| 2026-05-06 14:44 | 52.46627 | 5.36006 | 9118 ft | 285 kts | 252° |
| 2026-05-06 14:44 | 52.45960 | 5.32948 | 9009 ft | 285 kts | 252° |
| 2026-05-06 14:44 | 52.45307 | 5.29946 | 8980 ft | 281 kts | 252° |
| 2026-05-06 14:45 | 52.43985 | 5.23881 | 8989 ft | 288 kts | 252° |
| 2026-05-06 14:45 | 52.43292 | 5.20703 | 9004 ft | 297 kts | 252° |
| 2026-05-06 14:45 | 52.42608 | 5.17570 | 8998 ft | 294 kts | 252° |
| 2026-05-06 14:45 | 52.41922 | 5.14431 | 8985 ft | 289 kts | 252° |
| 2026-05-06 14:46 | 52.41250 | 5.11365 | 8976 ft | 284 kts | 252° |
| 2026-05-06 14:46 | 52.40591 | 5.08349 | 8967 ft | 279 kts | 252° |
| 2026-05-06 14:46 | 52.39940 | 5.05383 | 8933 ft | 278 kts | 252° |
| 2026-05-06 14:46 | 52.39278 | 5.02374 | 8943 ft | 283 kts | 252° |
| 2026-05-06 14:47 | 52.38606 | 4.99326 | 8947 ft | 285 kts | 251° |
| 2026-05-06 14:47 | 52.37929 | 4.96257 | 8729 ft | 287 kts | 251° |
| 2026-05-06 14:47 | 52.37258 | 4.93220 | 8469 ft | 283 kts | 251° |
| 2026-05-06 14:47 | 52.36807 | 4.91175 | 8281 ft | 282 kts | 251° |
| 2026-05-06 14:48 | 52.36148 | 4.88199 | 7996 ft | 281 kts | 251° |
| 2026-05-06 14:48 | 52.35475 | 4.85160 | 7684 ft | 279 kts | 251° |
| 2026-05-06 14:48 | 52.34819 | 4.82207 | 7177 ft | 279 kts | 251° |
| 2026-05-06 14:48 | 52.34161 | 4.79247 | 6769 ft | 275 kts | 251° |
| 2026-05-06 14:49 | 52.33523 | 4.76330 | 6364 ft | 264 kts | 256° |
| 2026-05-06 14:49 | 52.33409 | 4.73463 | 5929 ft | 252 kts | 279° |
| 2026-05-06 14:49 | 52.33741 | 4.70690 | 5507 ft | 245 kts | 285° |
| 2026-05-06 14:49 | 52.34134 | 4.68017 | 5069 ft | 240 kts | 286° |
| 2026-05-06 14:50 | 52.34520 | 4.65392 | 4634 ft | 236 kts | 284° |
| 2026-05-06 14:50 | 52.34392 | 4.62720 | 4219 ft | 243 kts | 247° |
| 2026-05-06 14:50 | 52.33526 | 4.60359 | 3877 ft | 242 kts | 238° |
| 2026-05-06 14:50 | 52.32609 | 4.58051 | 3518 ft | 241 kts | 238° |
| 2026-05-06 14:51 | 52.31710 | 4.55766 | 3167 ft | 238 kts | 239° |
| 2026-05-06 14:51 | 52.30822 | 4.53488 | 2791 ft | 237 kts | 239° |
| 2026-05-06 14:51 | 52.29943 | 4.51217 | 2418 ft | 236 kts | 239° |
| 2026-05-06 14:51 | 52.29063 | 4.48953 | 2064 ft | 235 kts | 238° |
| 2026-05-06 14:52 | 52.28210 | 4.46764 | 1997 ft | 221 kts | 238° |
| 2026-05-06 14:52 | 52.27400 | 4.44730 | 1955 ft | 207 kts | 231° |
| 2026-05-06 14:52 | 52.26289 | 4.43506 | 1979 ft | 188 kts | 191° |
| 2026-05-06 14:52 | 52.24993 | 4.43463 | 1991 ft | 187 kts | 163° |
| 2026-05-06 14:53 | 52.23998 | 4.44133 | 1988 ft | 182 kts | 146° |
| 2026-05-06 14:53 | 52.22923 | 4.45199 | 1968 ft | 178 kts | 143° |
| 2026-05-06 14:53 | 52.21943 | 4.46362 | 1968 ft | 174 kts | 127° |
| 2026-05-06 14:53 | 52.21474 | 4.48108 | 2031 ft | 171 kts | 103° |
| 2026-05-06 14:54 | 52.21112 | 4.49963 | 2010 ft | 172 kts | 104° |
| 2026-05-06 14:54 | 52.20974 | 4.51809 | 2004 ft | 154 kts | 71° |
| 2026-05-06 14:54 | 52.21433 | 4.53356 | 1993 ft | 151 kts | 62° |
| 2026-05-06 14:54 | 52.21883 | 4.54915 | 1992 ft | 154 kts | 63° |
| 2026-05-06 14:55 | 52.22368 | 4.56470 | 1993 ft | 151 kts | 61° |
| 2026-05-06 14:55 | 52.22906 | 4.57903 | 1975 ft | 146 kts | 56° |
| 2026-05-06 14:55 | 52.23421 | 4.59297 | 1966 ft | 145 kts | 58° |
| 2026-05-06 14:55 | 52.23926 | 4.60658 | 1827 ft | 136 kts | 58° |
| 2026-05-06 14:56 | 52.24416 | 4.61954 | 1658 ft | 131 kts | 57° |
| 2026-05-06 14:56 | 52.24890 | 4.63200 | 1516 ft | 130 kts | 57° |
| 2026-05-06 14:56 | 52.25374 | 4.64474 | 1302 ft | 132 kts | 58° |
| 2026-05-06 14:56 | 52.25866 | 4.65728 | 1147 ft | 132 kts | 58° |
| 2026-05-06 14:57 | 52.26344 | 4.67002 | 983 ft | 130 kts | 58° |
| 2026-05-06 14:57 | 52.26816 | 4.68245 | 803 ft | 127 kts | 58° |
| 2026-05-06 14:57 | 52.27291 | 4.69489 | 625 ft | 130 kts | 58° |
| 2026-05-06 14:57 | 52.27770 | 4.70737 | 450 ft | 130 kts | 58° |
| 2026-05-06 14:58 | 52.27976 | 4.71286 | 381 ft | 130 kts | 56° |
| 2026-05-06 14:58 | 52.28409 | 4.72411 | 225 ft | 130 kts | 58° |
| 2026-05-06 14:58 | 52.28885 | 4.73658 | 52 ft | 129 kts | 57° |
| 2026-05-06 14:58 | 52.29308 | 4.74758 | 0 ft | 88 kts | 58° |
| 2026-05-06 14:59 | 52.29564 | 4.75419 | -5 ft | 60 kts | 57° |
| 2026-05-06 14:59 | 52.29774 | 4.75967 | -6 ft | 54 kts | 58° |
| 2026-05-06 14:59 | 52.29962 | 4.76441 | -5 ft | 39 kts | 51° |
| 2026-05-06 14:59 | 52.30082 | 4.76581 | -4 ft | 19 kts | 31° |
| 2026-05-06 15:00 | 52.30188 | 4.76674 | -3 ft | 3 kts | 26° |
| 2026-05-06 15:00 | 52.30211 | 4.76695 | -3 ft | 7 kts | 29° |
| 2026-05-06 15:00 | 52.30260 | 4.76739 | -3 ft | 12 kts | 29° |
| 2026-05-06 15:01 | 52.30322 | 4.76847 | -4 ft | 14 kts | 60° |
| 2026-05-06 15:01 | 52.30385 | 4.77011 | -4 ft | 19 kts | 57° |
| 2026-05-06 15:01 | 52.30442 | 4.77137 | -4 ft | 11 kts | 33° |
| 2026-05-06 15:01 | 52.30516 | 4.77118 | -3 ft | 12 kts | 329° |
| 2026-05-06 15:02 | 52.30589 | 4.77045 | -3 ft | 12 kts | 334° |
| 2026-05-06 15:02 | 52.30647 | 4.77094 | -3 ft | 5 kts | 71° |
| 2026-05-06 15:02 | 52.30659 | 4.77144 | -3 ft | 5 kts | 38° |
| 2026-05-06 15:02 | 52.30694 | 4.77152 | -3 ft | 5 kts | 2° |
| 2026-05-06 15:03 | 52.30702 | 4.77153 | -3 ft | 0 kts | 3° |